sensor_id;sensor_type;location;lat;lon;timestamp;P1;durP1;ratioP1;P2;durP2;ratioP2
74974;SDS011;64061;50.836;19.138;2022-11-15T00:00:25;5.53;;;2.75;;
74974;SDS011;64061;50.836;19.138;2022-11-15T00:03:50;5.68;;;3.28;;
74974;SDS011;64061;50.836;19.138;2022-11-15T00:07:13;3.97;;;2.60;;
74974;SDS011;64061;50.836;19.138;2022-11-15T00:10:55;5.35;;;3.00;;
74974;SDS011;64061;50.836;19.138;2022-11-15T00:14:18;5.27;;;3.10;;
74974;SDS011;64061;50.836;19.138;2022-11-15T00:17:41;6.07;;;3.75;;
74974;SDS011;64061;50.836;19.138;2022-11-15T00:21:04;5.88;;;2.65;;
74974;SDS011;64061;50.836;19.138;2022-11-15T00:24:28;6.45;;;3.70;;
74974;SDS011;64061;50.836;19.138;2022-11-15T00:27:54;7.90;;;4.25;;
74974;SDS011;64061;50.836;19.138;2022-11-15T00:31:17;4.53;;;2.63;;
74974;SDS011;64061;50.836;19.138;2022-11-15T00:34:41;8.48;;;3.92;;
74974;SDS011;64061;50.836;19.138;2022-11-15T00:38:03;7.38;;;3.30;;
74974;SDS011;64061;50.836;19.138;2022-11-15T00:41:25;5.10;;;2.90;;
74974;SDS011;64061;50.836;19.138;2022-11-15T00:44:47;5.87;;;3.40;;
74974;SDS011;64061;50.836;19.138;2022-11-15T00:48:10;4.80;;;2.58;;
74974;SDS011;64061;50.836;19.138;2022-11-15T00:51:34;5.93;;;2.55;;
74974;SDS011;64061;50.836;19.138;2022-11-15T00:54:56;5.82;;;4.10;;
74974;SDS011;64061;50.836;19.138;2022-11-15T00:58:18;5.85;;;3.38;;
74974;SDS011;64061;50.836;19.138;2022-11-15T01:01:41;6.77;;;3.37;;
74974;SDS011;64061;50.836;19.138;2022-11-15T01:05:03;4.85;;;2.35;;
74974;SDS011;64061;50.836;19.138;2022-11-15T01:08:29;4.25;;;2.10;;
74974;SDS011;64061;50.836;19.138;2022-11-15T01:11:51;6.18;;;2.83;;
74974;SDS011;64061;50.836;19.138;2022-11-15T01:15:14;7.63;;;3.03;;
74974;SDS011;64061;50.836;19.138;2022-11-15T01:18:36;5.97;;;2.90;;
74974;SDS011;64061;50.836;19.138;2022-11-15T01:21:59;4.82;;;2.70;;
74974;SDS011;64061;50.836;19.138;2022-11-15T01:25:22;3.95;;;2.45;;
74974;SDS011;64061;50.836;19.138;2022-11-15T01:28:45;5.13;;;2.85;;
74974;SDS011;64061;50.836;19.138;2022-11-15T01:32:07;6.40;;;2.88;;
74974;SDS011;64061;50.836;19.138;2022-11-15T01:35:30;6.93;;;2.87;;
74974;SDS011;64061;50.836;19.138;2022-11-15T01:38:52;7.95;;;3.67;;
74974;SDS011;64061;50.836;19.138;2022-11-15T01:42:17;4.47;;;2.20;;
74974;SDS011;64061;50.836;19.138;2022-11-15T01:45:40;6.43;;;3.13;;
74974;SDS011;64061;50.836;19.138;2022-11-15T01:49:03;4.90;;;2.85;;
74974;SDS011;64061;50.836;19.138;2022-11-15T01:52:34;6.97;;;3.07;;
74974;SDS011;64061;50.836;19.138;2022-11-15T01:56:00;4.80;;;2.95;;
74974;SDS011;64061;50.836;19.138;2022-11-15T01:59:27;5.40;;;2.30;;
74974;SDS011;64061;50.836;19.138;2022-11-15T02:02:50;5.57;;;2.15;;
74974;SDS011;64061;50.836;19.138;2022-11-15T02:06:12;4.63;;;2.67;;
74974;SDS011;64061;50.836;19.138;2022-11-15T02:09:37;4.43;;;2.67;;
74974;SDS011;64061;50.836;19.138;2022-11-15T02:13:00;4.03;;;2.75;;
74974;SDS011;64061;50.836;19.138;2022-11-15T02:16:27;5.15;;;2.78;;
74974;SDS011;64061;50.836;19.138;2022-11-15T02:20:14;3.80;;;2.38;;
74974;SDS011;64061;50.836;19.138;2022-11-15T02:28:10;5.03;;;2.73;;
74974;SDS011;64061;50.836;19.138;2022-11-15T02:32:05;4.88;;;2.05;;
74974;SDS011;64061;50.836;19.138;2022-11-15T02:35:43;3.97;;;2.17;;
74974;SDS011;64061;50.836;19.138;2022-11-15T02:39:17;4.38;;;2.53;;
74974;SDS011;64061;50.836;19.138;2022-11-15T02:42:49;4.47;;;2.38;;
74974;SDS011;64061;50.836;19.138;2022-11-15T02:46:37;5.83;;;2.13;;
74974;SDS011;64061;50.836;19.138;2022-11-15T02:50:25;4.43;;;2.67;;
74974;SDS011;64061;50.836;19.138;2022-11-15T02:53:51;4.13;;;2.50;;
74974;SDS011;64061;50.836;19.138;2022-11-15T02:57:14;4.40;;;2.72;;
74974;SDS011;64061;50.836;19.138;2022-11-15T03:00:46;3.73;;;2.77;;
74974;SDS011;64061;50.836;19.138;2022-11-15T03:04:23;3.08;;;2.30;;
74974;SDS011;64061;50.836;19.138;2022-11-15T03:08:02;4.78;;;2.35;;
74974;SDS011;64061;50.836;19.138;2022-11-15T03:11:36;4.82;;;2.63;;
74974;SDS011;64061;50.836;19.138;2022-11-15T03:15:06;3.95;;;2.70;;
74974;SDS011;64061;50.836;19.138;2022-11-15T03:18:39;4.57;;;2.30;;
74974;SDS011;64061;50.836;19.138;2022-11-15T03:22:07;4.13;;;2.38;;
74974;SDS011;64061;50.836;19.138;2022-11-15T03:25:40;3.97;;;2.10;;
74974;SDS011;64061;50.836;19.138;2022-11-15T03:29:11;5.93;;;2.28;;
74974;SDS011;64061;50.836;19.138;2022-11-15T03:32:39;4.15;;;1.77;;
74974;SDS011;64061;50.836;19.138;2022-11-15T03:36:08;4.17;;;2.60;;
74974;SDS011;64061;50.836;19.138;2022-11-15T03:39:30;5.60;;;2.05;;
74974;SDS011;64061;50.836;19.138;2022-11-15T03:42:56;3.30;;;1.90;;
74974;SDS011;64061;50.836;19.138;2022-11-15T03:46:27;5.13;;;2.95;;
74974;SDS011;64061;50.836;19.138;2022-11-15T03:49:57;3.63;;;2.25;;
74974;SDS011;64061;50.836;19.138;2022-11-15T03:53:25;3.73;;;2.00;;
74974;SDS011;64061;50.836;19.138;2022-11-15T03:56:51;5.00;;;2.65;;
74974;SDS011;64061;50.836;19.138;2022-11-15T04:00:15;3.65;;;2.15;;
74974;SDS011;64061;50.836;19.138;2022-11-15T04:03:37;2.83;;;1.98;;
74974;SDS011;64061;50.836;19.138;2022-11-15T04:07:00;3.55;;;2.38;;
74974;SDS011;64061;50.836;19.138;2022-11-15T04:10:22;3.10;;;2.00;;
74974;SDS011;64061;50.836;19.138;2022-11-15T04:13:44;5.35;;;2.55;;
74974;SDS011;64061;50.836;19.138;2022-11-15T04:17:07;4.53;;;2.20;;
74974;SDS011;64061;50.836;19.138;2022-11-15T04:20:30;3.92;;;1.75;;
74974;SDS011;64061;50.836;19.138;2022-11-15T04:24:10;3.13;;;1.58;;
74974;SDS011;64061;50.836;19.138;2022-11-15T04:27:35;4.77;;;2.63;;
74974;SDS011;64061;50.836;19.138;2022-11-15T04:30:57;4.70;;;2.17;;
74974;SDS011;64061;50.836;19.138;2022-11-15T04:34:21;3.92;;;2.60;;
74974;SDS011;64061;50.836;19.138;2022-11-15T04:37:43;5.03;;;2.58;;
74974;SDS011;64061;50.836;19.138;2022-11-15T04:41:08;7.25;;;2.83;;
74974;SDS011;64061;50.836;19.138;2022-11-15T04:44:31;4.53;;;2.20;;
74974;SDS011;64061;50.836;19.138;2022-11-15T04:47:53;5.80;;;1.88;;
74974;SDS011;64061;50.836;19.138;2022-11-15T04:51:16;4.20;;;2.13;;
74974;SDS011;64061;50.836;19.138;2022-11-15T04:54:39;4.28;;;2.20;;
74974;SDS011;64061;50.836;19.138;2022-11-15T04:58:02;3.45;;;1.77;;
74974;SDS011;64061;50.836;19.138;2022-11-15T05:01:24;5.97;;;2.60;;
74974;SDS011;64061;50.836;19.138;2022-11-15T05:04:47;3.70;;;2.30;;
74974;SDS011;64061;50.836;19.138;2022-11-15T05:08:10;6.32;;;2.47;;
74974;SDS011;64061;50.836;19.138;2022-11-15T05:11:32;4.65;;;2.15;;
74974;SDS011;64061;50.836;19.138;2022-11-15T05:14:54;4.75;;;2.28;;
74974;SDS011;64061;50.836;19.138;2022-11-15T05:18:16;5.07;;;2.63;;
74974;SDS011;64061;50.836;19.138;2022-11-15T05:21:43;4.15;;;2.15;;
74974;SDS011;64061;50.836;19.138;2022-11-15T05:25:07;4.85;;;2.22;;
74974;SDS011;64061;50.836;19.138;2022-11-15T05:28:29;3.22;;;2.20;;
74974;SDS011;64061;50.836;19.138;2022-11-15T05:31:52;4.00;;;2.05;;
74974;SDS011;64061;50.836;19.138;2022-11-15T05:35:16;3.63;;;2.40;;
74974;SDS011;64061;50.836;19.138;2022-11-15T05:38:47;2.65;;;1.90;;
74974;SDS011;64061;50.836;19.138;2022-11-15T05:42:13;4.30;;;2.60;;
74974;SDS011;64061;50.836;19.138;2022-11-15T05:45:37;4.38;;;2.05;;
74974;SDS011;64061;50.836;19.138;2022-11-15T05:48:59;3.33;;;1.58;;
74974;SDS011;64061;50.836;19.138;2022-11-15T05:52:23;2.93;;;1.30;;
74974;SDS011;64061;50.836;19.138;2022-11-15T05:55:51;3.72;;;1.45;;
74974;SDS011;64061;50.836;19.138;2022-11-15T05:59:15;2.60;;;1.50;;
74974;SDS011;64061;50.836;19.138;2022-11-15T06:02:38;3.58;;;1.50;;
74974;SDS011;64061;50.836;19.138;2022-11-15T06:06:01;3.25;;;1.67;;
74974;SDS011;64061;50.836;19.138;2022-11-15T06:09:23;3.97;;;2.13;;
74974;SDS011;64061;50.836;19.138;2022-11-15T06:12:46;3.92;;;1.67;;
74974;SDS011;64061;50.836;19.138;2022-11-15T06:16:09;3.35;;;1.75;;
74974;SDS011;64061;50.836;19.138;2022-11-15T06:19:31;3.88;;;1.90;;
74974;SDS011;64061;50.836;19.138;2022-11-15T06:22:56;4.20;;;1.45;;
74974;SDS011;64061;50.836;19.138;2022-11-15T06:26:19;4.33;;;1.93;;
74974;SDS011;64061;50.836;19.138;2022-11-15T06:29:41;4.47;;;1.83;;
74974;SDS011;64061;50.836;19.138;2022-11-15T06:33:05;3.70;;;1.38;;
74974;SDS011;64061;50.836;19.138;2022-11-15T06:36:28;3.88;;;1.88;;
74974;SDS011;64061;50.836;19.138;2022-11-15T06:39:51;4.20;;;2.00;;
74974;SDS011;64061;50.836;19.138;2022-11-15T06:43:13;3.43;;;1.40;;
74974;SDS011;64061;50.836;19.138;2022-11-15T06:46:36;3.72;;;1.90;;
74974;SDS011;64061;50.836;19.138;2022-11-15T06:49:59;3.70;;;1.95;;
74974;SDS011;64061;50.836;19.138;2022-11-15T06:53:22;3.92;;;2.00;;
74974;SDS011;64061;50.836;19.138;2022-11-15T06:56:44;4.00;;;1.63;;
74974;SDS011;64061;50.836;19.138;2022-11-15T07:00:06;4.07;;;1.73;;
74974;SDS011;64061;50.836;19.138;2022-11-15T07:03:30;3.00;;;1.65;;
74974;SDS011;64061;50.836;19.138;2022-11-15T07:06:55;3.80;;;1.90;;
74974;SDS011;64061;50.836;19.138;2022-11-15T07:10:17;3.50;;;1.67;;
74974;SDS011;64061;50.836;19.138;2022-11-15T07:13:39;3.00;;;1.70;;
74974;SDS011;64061;50.836;19.138;2022-11-15T07:17:02;3.20;;;1.87;;
74974;SDS011;64061;50.836;19.138;2022-11-15T07:20:26;2.92;;;1.80;;
74974;SDS011;64061;50.836;19.138;2022-11-15T07:23:49;4.15;;;2.13;;
74974;SDS011;64061;50.836;19.138;2022-11-15T07:27:11;4.50;;;1.95;;
74974;SDS011;64061;50.836;19.138;2022-11-15T07:30:33;2.78;;;1.50;;
74974;SDS011;64061;50.836;19.138;2022-11-15T07:34:00;3.13;;;1.43;;
74974;SDS011;64061;50.836;19.138;2022-11-15T07:37:22;3.58;;;2.00;;
74974;SDS011;64061;50.836;19.138;2022-11-15T07:40:45;3.15;;;1.83;;
74974;SDS011;64061;50.836;19.138;2022-11-15T07:44:08;3.65;;;1.65;;
74974;SDS011;64061;50.836;19.138;2022-11-15T07:47:30;4.32;;;1.95;;
74974;SDS011;64061;50.836;19.138;2022-11-15T07:50:52;3.17;;;2.10;;
74974;SDS011;64061;50.836;19.138;2022-11-15T07:54:14;3.47;;;1.48;;
74974;SDS011;64061;50.836;19.138;2022-11-15T07:57:37;3.45;;;1.73;;
74974;SDS011;64061;50.836;19.138;2022-11-15T08:01:02;3.78;;;1.42;;
74974;SDS011;64061;50.836;19.138;2022-11-15T08:04:25;4.03;;;1.90;;
74974;SDS011;64061;50.836;19.138;2022-11-15T08:07:47;3.67;;;1.33;;
74974;SDS011;64061;50.836;19.138;2022-11-15T08:11:12;3.88;;;1.70;;
74974;SDS011;64061;50.836;19.138;2022-11-15T08:14:36;5.63;;;1.67;;
74974;SDS011;64061;50.836;19.138;2022-11-15T08:17:59;4.40;;;1.92;;
74974;SDS011;64061;50.836;19.138;2022-11-15T08:21:23;3.35;;;1.63;;
74974;SDS011;64061;50.836;19.138;2022-11-15T08:24:46;2.97;;;1.63;;
74974;SDS011;64061;50.836;19.138;2022-11-15T08:28:09;3.08;;;2.10;;
74974;SDS011;64061;50.836;19.138;2022-11-15T08:31:33;4.05;;;2.08;;
74974;SDS011;64061;50.836;19.138;2022-11-15T08:34:57;2.83;;;1.38;;
74974;SDS011;64061;50.836;19.138;2022-11-15T08:38:19;2.80;;;1.67;;
74974;SDS011;64061;50.836;19.138;2022-11-15T08:41:41;3.20;;;1.87;;
74974;SDS011;64061;50.836;19.138;2022-11-15T08:45:02;3.42;;;1.52;;
74974;SDS011;64061;50.836;19.138;2022-11-15T08:48:27;2.97;;;1.52;;
74974;SDS011;64061;50.836;19.138;2022-11-15T08:51:51;2.33;;;1.40;;
74974;SDS011;64061;50.836;19.138;2022-11-15T08:55:13;3.10;;;1.67;;
74974;SDS011;64061;50.836;19.138;2022-11-15T08:58:36;4.17;;;2.40;;
74974;SDS011;64061;50.836;19.138;2022-11-15T09:01:59;3.35;;;1.75;;
74974;SDS011;64061;50.836;19.138;2022-11-15T09:05:22;38.67;;;14.40;;
74974;SDS011;64061;50.836;19.138;2022-11-15T09:08:45;122.80;;;46.15;;
74974;SDS011;64061;50.836;19.138;2022-11-15T09:12:11;100.13;;;35.08;;
74974;SDS011;64061;50.836;19.138;2022-11-15T09:15:33;62.83;;;24.30;;
74974;SDS011;64061;50.836;19.138;2022-11-15T09:18:55;42.95;;;16.80;;
74974;SDS011;64061;50.836;19.138;2022-11-15T09:22:19;34.67;;;11.45;;
74974;SDS011;64061;50.836;19.138;2022-11-15T09:25:44;33.80;;;11.95;;
74974;SDS011;64061;50.836;19.138;2022-11-15T09:29:06;27.27;;;11.98;;
74974;SDS011;64061;50.836;19.138;2022-11-15T09:32:28;36.33;;;13.13;;
74974;SDS011;64061;50.836;19.138;2022-11-15T09:36:01;27.33;;;11.40;;
74974;SDS011;64061;50.836;19.138;2022-11-15T09:39:27;26.77;;;9.98;;
74974;SDS011;64061;50.836;19.138;2022-11-15T09:42:53;23.02;;;10.27;;
74974;SDS011;64061;50.836;19.138;2022-11-15T09:46:36;23.83;;;8.68;;
74974;SDS011;64061;50.836;19.138;2022-11-15T09:50:19;24.60;;;8.60;;
74974;SDS011;64061;50.836;19.138;2022-11-15T09:53:34;23.83;;;8.77;;
74974;SDS011;64061;50.836;19.138;2022-11-15T09:57:15;26.70;;;8.70;;
74974;SDS011;64061;50.836;19.138;2022-11-15T10:00:24;18.13;;;7.93;;
74974;SDS011;64061;50.836;19.138;2022-11-15T10:03:55;17.33;;;7.22;;
74974;SDS011;64061;50.836;19.138;2022-11-15T10:07:12;20.47;;;7.17;;
74974;SDS011;64061;50.836;19.138;2022-11-15T10:10:24;14.55;;;6.70;;
74974;SDS011;64061;50.836;19.138;2022-11-15T10:13:41;11.75;;;5.28;;
74974;SDS011;64061;50.836;19.138;2022-11-15T10:16:59;16.13;;;6.63;;
74974;SDS011;64061;50.836;19.138;2022-11-15T10:20:21;10.73;;;4.95;;
74974;SDS011;64061;50.836;19.138;2022-11-15T10:23:28;12.47;;;5.57;;
74974;SDS011;64061;50.836;19.138;2022-11-15T10:26:34;14.15;;;4.88;;
74974;SDS011;64061;50.836;19.138;2022-11-15T10:29:44;16.42;;;5.28;;
74974;SDS011;64061;50.836;19.138;2022-11-15T10:32:49;10.25;;;4.40;;
74974;SDS011;64061;50.836;19.138;2022-11-15T10:39:23;10.07;;;4.70;;
74974;SDS011;64061;50.836;19.138;2022-11-15T10:42:28;7.03;;;4.10;;
74974;SDS011;64061;50.836;19.138;2022-11-15T10:45:33;6.32;;;3.58;;
74974;SDS011;64061;50.836;19.138;2022-11-15T10:48:37;10.55;;;4.32;;
74974;SDS011;64061;50.836;19.138;2022-11-15T10:51:42;10.20;;;4.72;;
74974;SDS011;64061;50.836;19.138;2022-11-15T10:54:52;6.40;;;3.80;;
74974;SDS011;64061;50.836;19.138;2022-11-15T10:58:03;9.90;;;4.43;;
74974;SDS011;64061;50.836;19.138;2022-11-15T11:01:25;8.75;;;3.83;;
74974;SDS011;64061;50.836;19.138;2022-11-15T11:04:35;7.93;;;3.28;;
74974;SDS011;64061;50.836;19.138;2022-11-15T11:07:55;12.45;;;3.78;;
74974;SDS011;64061;50.836;19.138;2022-11-15T11:11:03;9.50;;;4.10;;
74974;SDS011;64061;50.836;19.138;2022-11-15T11:14:11;7.95;;;3.47;;
74974;SDS011;64061;50.836;19.138;2022-11-15T11:17:23;7.70;;;3.28;;
74974;SDS011;64061;50.836;19.138;2022-11-15T11:20:54;8.23;;;3.78;;
74974;SDS011;64061;50.836;19.138;2022-11-15T11:24:07;6.13;;;3.50;;
74974;SDS011;64061;50.836;19.138;2022-11-15T11:27:22;7.47;;;3.40;;
74974;SDS011;64061;50.836;19.138;2022-11-15T11:30:47;7.82;;;3.60;;
74974;SDS011;64061;50.836;19.138;2022-11-15T11:34:08;8.48;;;3.78;;
74974;SDS011;64061;50.836;19.138;2022-11-15T11:37:24;7.45;;;2.70;;
74974;SDS011;64061;50.836;19.138;2022-11-15T11:40:41;9.00;;;3.95;;
74974;SDS011;64061;50.836;19.138;2022-11-15T11:43:59;3.90;;;2.90;;
74974;SDS011;64061;50.836;19.138;2022-11-15T11:47:20;4.60;;;2.75;;
74974;SDS011;64061;50.836;19.138;2022-11-15T11:50:29;10.20;;;3.40;;
74974;SDS011;64061;50.836;19.138;2022-11-15T11:53:35;5.70;;;3.25;;
74974;SDS011;64061;50.836;19.138;2022-11-15T11:56:49;6.32;;;3.40;;
74974;SDS011;64061;50.836;19.138;2022-11-15T11:59:58;6.13;;;3.50;;
74974;SDS011;64061;50.836;19.138;2022-11-15T12:03:14;6.05;;;3.20;;
74974;SDS011;64061;50.836;19.138;2022-11-15T12:06:33;7.07;;;3.72;;
74974;SDS011;64061;50.836;19.138;2022-11-15T12:09:44;6.45;;;3.55;;
74974;SDS011;64061;50.836;19.138;2022-11-15T12:13:00;6.88;;;3.33;;
74974;SDS011;64061;50.836;19.138;2022-11-15T12:16:12;6.60;;;3.90;;
74974;SDS011;64061;50.836;19.138;2022-11-15T12:19:22;6.60;;;3.45;;
74974;SDS011;64061;50.836;19.138;2022-11-15T12:22:28;4.03;;;2.45;;
74974;SDS011;64061;50.836;19.138;2022-11-15T12:25:44;6.07;;;3.53;;
74974;SDS011;64061;50.836;19.138;2022-11-15T12:28:53;7.90;;;3.80;;
74974;SDS011;64061;50.836;19.138;2022-11-15T12:32:16;6.97;;;4.13;;
74974;SDS011;64061;50.836;19.138;2022-11-15T12:35:31;5.03;;;2.80;;
74974;SDS011;64061;50.836;19.138;2022-11-15T12:38:51;7.53;;;3.58;;
74974;SDS011;64061;50.836;19.138;2022-11-15T12:45:43;8.45;;;4.00;;
74974;SDS011;64061;50.836;19.138;2022-11-15T12:48:49;5.60;;;3.73;;
74974;SDS011;64061;50.836;19.138;2022-11-15T12:52:07;8.68;;;4.25;;
74974;SDS011;64061;50.836;19.138;2022-11-15T12:55:31;6.03;;;4.20;;
74974;SDS011;64061;50.836;19.138;2022-11-15T12:58:40;8.90;;;3.67;;
74974;SDS011;64061;50.836;19.138;2022-11-15T13:02:00;7.93;;;4.10;;
74974;SDS011;64061;50.836;19.138;2022-11-15T13:08:59;8.18;;;4.50;;
74974;SDS011;64061;50.836;19.138;2022-11-15T13:12:06;6.57;;;4.28;;
74974;SDS011;64061;50.836;19.138;2022-11-15T13:19:02;7.50;;;3.83;;
74974;SDS011;64061;50.836;19.138;2022-11-15T13:22:10;7.13;;;3.40;;
74974;SDS011;64061;50.836;19.138;2022-11-15T13:25:45;7.47;;;4.25;;
74974;SDS011;64061;50.836;19.138;2022-11-15T13:29:16;6.57;;;3.63;;
74974;SDS011;64061;50.836;19.138;2022-11-15T13:32:22;5.22;;;3.63;;
74974;SDS011;64061;50.836;19.138;2022-11-15T13:35:28;4.47;;;3.30;;
74974;SDS011;64061;50.836;19.138;2022-11-15T13:38:40;6.10;;;3.77;;
74974;SDS011;64061;50.836;19.138;2022-11-15T13:41:45;9.15;;;3.58;;
74974;SDS011;64061;50.836;19.138;2022-11-15T13:44:58;7.25;;;3.50;;
74974;SDS011;64061;50.836;19.138;2022-11-15T13:48:03;6.20;;;3.95;;
74974;SDS011;64061;50.836;19.138;2022-11-15T13:51:10;5.25;;;3.17;;
74974;SDS011;64061;50.836;19.138;2022-11-15T13:54:27;6.30;;;3.13;;
74974;SDS011;64061;50.836;19.138;2022-11-15T13:57:37;6.13;;;3.25;;
74974;SDS011;64061;50.836;19.138;2022-11-15T14:00:48;6.03;;;3.85;;
74974;SDS011;64061;50.836;19.138;2022-11-15T14:04:03;5.32;;;3.42;;
74974;SDS011;64061;50.836;19.138;2022-11-15T14:07:14;6.28;;;2.83;;
74974;SDS011;64061;50.836;19.138;2022-11-15T14:10:26;4.47;;;3.20;;
74974;SDS011;64061;50.836;19.138;2022-11-15T14:13:32;5.60;;;3.42;;
74974;SDS011;64061;50.836;19.138;2022-11-15T14:16:40;5.32;;;3.28;;
74974;SDS011;64061;50.836;19.138;2022-11-15T14:19:45;7.68;;;3.85;;
74974;SDS011;64061;50.836;19.138;2022-11-15T14:22:53;6.55;;;3.28;;
74974;SDS011;64061;50.836;19.138;2022-11-15T14:25:58;6.07;;;3.33;;
74974;SDS011;64061;50.836;19.138;2022-11-15T14:32:38;6.63;;;4.13;;
74974;SDS011;64061;50.836;19.138;2022-11-15T14:35:48;7.30;;;3.70;;
74974;SDS011;64061;50.836;19.138;2022-11-15T14:38:52;10.35;;;4.20;;
74974;SDS011;64061;50.836;19.138;2022-11-15T14:41:57;4.93;;;3.47;;
74974;SDS011;64061;50.836;19.138;2022-11-15T14:45:00;5.38;;;2.90;;
74974;SDS011;64061;50.836;19.138;2022-11-15T14:48:06;6.50;;;3.88;;
74974;SDS011;64061;50.836;19.138;2022-11-15T14:51:11;6.75;;;3.45;;
74974;SDS011;64061;50.836;19.138;2022-11-15T14:54:17;7.63;;;3.53;;
74974;SDS011;64061;50.836;19.138;2022-11-15T14:57:20;6.50;;;3.20;;
74974;SDS011;64061;50.836;19.138;2022-11-15T15:00:24;5.30;;;3.05;;
74974;SDS011;64061;50.836;19.138;2022-11-15T15:03:39;4.38;;;3.00;;
74974;SDS011;64061;50.836;19.138;2022-11-15T15:06:43;4.68;;;3.10;;
74974;SDS011;64061;50.836;19.138;2022-11-15T15:09:47;5.32;;;2.88;;
74974;SDS011;64061;50.836;19.138;2022-11-15T15:12:51;5.63;;;2.63;;
74974;SDS011;64061;50.836;19.138;2022-11-15T15:15:54;5.25;;;2.88;;
74974;SDS011;64061;50.836;19.138;2022-11-15T15:18:59;4.65;;;2.95;;
74974;SDS011;64061;50.836;19.138;2022-11-15T15:22:02;5.68;;;2.67;;
74974;SDS011;64061;50.836;19.138;2022-11-15T15:25:14;5.57;;;3.30;;
74974;SDS011;64061;50.836;19.138;2022-11-15T15:28:24;5.63;;;3.20;;
74974;SDS011;64061;50.836;19.138;2022-11-15T15:31:35;4.10;;;2.38;;
74974;SDS011;64061;50.836;19.138;2022-11-15T15:34:40;4.38;;;2.72;;
74974;SDS011;64061;50.836;19.138;2022-11-15T15:37:44;5.05;;;2.40;;
74974;SDS011;64061;50.836;19.138;2022-11-15T15:40:49;5.95;;;2.88;;
74974;SDS011;64061;50.836;19.138;2022-11-15T15:43:53;3.40;;;2.10;;
74974;SDS011;64061;50.836;19.138;2022-11-15T15:46:56;5.22;;;2.63;;
74974;SDS011;64061;50.836;19.138;2022-11-15T15:50:02;3.33;;;2.53;;
74974;SDS011;64061;50.836;19.138;2022-11-15T15:53:07;4.57;;;2.88;;
74974;SDS011;64061;50.836;19.138;2022-11-15T15:56:12;3.65;;;2.40;;
74974;SDS011;64061;50.836;19.138;2022-11-15T15:59:15;5.10;;;2.80;;
74974;SDS011;64061;50.836;19.138;2022-11-15T16:02:19;5.38;;;2.92;;
74974;SDS011;64061;50.836;19.138;2022-11-15T16:05:24;5.10;;;3.47;;
74974;SDS011;64061;50.836;19.138;2022-11-15T16:08:28;3.85;;;2.42;;
74974;SDS011;64061;50.836;19.138;2022-11-15T16:11:52;5.43;;;2.72;;
74974;SDS011;64061;50.836;19.138;2022-11-15T16:14:56;5.57;;;2.90;;
74974;SDS011;64061;50.836;19.138;2022-11-15T16:18:00;8.20;;;3.10;;
74974;SDS011;64061;50.836;19.138;2022-11-15T16:21:07;4.65;;;3.08;;
74974;SDS011;64061;50.836;19.138;2022-11-15T16:24:11;9.18;;;3.72;;
74974;SDS011;64061;50.836;19.138;2022-11-15T16:27:15;7.95;;;2.28;;
74974;SDS011;64061;50.836;19.138;2022-11-15T16:30:22;4.23;;;2.30;;
74974;SDS011;64061;50.836;19.138;2022-11-15T16:33:26;5.05;;;2.63;;
74974;SDS011;64061;50.836;19.138;2022-11-15T16:36:32;4.28;;;2.85;;
74974;SDS011;64061;50.836;19.138;2022-11-15T16:39:37;5.70;;;2.53;;
74974;SDS011;64061;50.836;19.138;2022-11-15T16:42:41;3.85;;;2.55;;
74974;SDS011;64061;50.836;19.138;2022-11-15T16:45:44;3.97;;;2.60;;
74974;SDS011;64061;50.836;19.138;2022-11-15T16:48:48;5.43;;;2.63;;
74974;SDS011;64061;50.836;19.138;2022-11-15T16:51:54;4.47;;;2.65;;
74974;SDS011;64061;50.836;19.138;2022-11-15T16:54:57;4.18;;;2.55;;
74974;SDS011;64061;50.836;19.138;2022-11-15T16:58:01;3.55;;;2.13;;
74974;SDS011;64061;50.836;19.138;2022-11-15T17:01:04;7.27;;;3.47;;
74974;SDS011;64061;50.836;19.138;2022-11-15T17:04:09;4.50;;;3.15;;
74974;SDS011;64061;50.836;19.138;2022-11-15T17:07:15;3.88;;;2.38;;
74974;SDS011;64061;50.836;19.138;2022-11-15T17:10:19;4.03;;;2.72;;
74974;SDS011;64061;50.836;19.138;2022-11-15T17:13:23;3.85;;;1.90;;
74974;SDS011;64061;50.836;19.138;2022-11-15T17:16:27;4.80;;;2.67;;
74974;SDS011;64061;50.836;19.138;2022-11-15T17:19:31;6.00;;;3.10;;
74974;SDS011;64061;50.836;19.138;2022-11-15T17:22:36;3.78;;;2.75;;
74974;SDS011;64061;50.836;19.138;2022-11-15T17:25:39;7.57;;;3.78;;
74974;SDS011;64061;50.836;19.138;2022-11-15T17:28:43;6.30;;;3.83;;
74974;SDS011;64061;50.836;19.138;2022-11-15T17:31:47;12.60;;;3.83;;
74974;SDS011;64061;50.836;19.138;2022-11-15T17:34:50;9.82;;;4.13;;
74974;SDS011;64061;50.836;19.138;2022-11-15T17:37:55;6.57;;;3.28;;
74974;SDS011;64061;50.836;19.138;2022-11-15T17:40:59;7.05;;;3.65;;
74974;SDS011;64061;50.836;19.138;2022-11-15T17:44:04;6.20;;;4.50;;
74974;SDS011;64061;50.836;19.138;2022-11-15T17:47:08;7.27;;;3.37;;
74974;SDS011;64061;50.836;19.138;2022-11-15T17:50:12;5.53;;;3.40;;
74974;SDS011;64061;50.836;19.138;2022-11-15T17:53:17;6.45;;;3.42;;
74974;SDS011;64061;50.836;19.138;2022-11-15T17:56:21;6.15;;;3.42;;
74974;SDS011;64061;50.836;19.138;2022-11-15T17:59:29;8.10;;;3.13;;
74974;SDS011;64061;50.836;19.138;2022-11-15T18:02:32;5.00;;;3.17;;
74974;SDS011;64061;50.836;19.138;2022-11-15T18:05:37;9.35;;;4.10;;
74974;SDS011;64061;50.836;19.138;2022-11-15T18:08:43;5.25;;;3.58;;
74974;SDS011;64061;50.836;19.138;2022-11-15T18:11:49;8.77;;;4.53;;
74974;SDS011;64061;50.836;19.138;2022-11-15T18:14:54;8.05;;;4.20;;
74974;SDS011;64061;50.836;19.138;2022-11-15T18:17:59;6.50;;;3.57;;
74974;SDS011;64061;50.836;19.138;2022-11-15T18:21:03;5.90;;;3.67;;
74974;SDS011;64061;50.836;19.138;2022-11-15T18:24:11;5.30;;;3.67;;
74974;SDS011;64061;50.836;19.138;2022-11-15T18:27:15;6.97;;;3.90;;
74974;SDS011;64061;50.836;19.138;2022-11-15T18:30:19;6.88;;;4.05;;
74974;SDS011;64061;50.836;19.138;2022-11-15T18:33:23;11.00;;;4.77;;
74974;SDS011;64061;50.836;19.138;2022-11-15T18:36:28;6.38;;;3.92;;
74974;SDS011;64061;50.836;19.138;2022-11-15T18:39:34;7.65;;;4.25;;
74974;SDS011;64061;50.836;19.138;2022-11-15T18:42:38;8.10;;;4.22;;
74974;SDS011;64061;50.836;19.138;2022-11-15T18:45:41;9.55;;;4.60;;
74974;SDS011;64061;50.836;19.138;2022-11-15T18:48:48;11.83;;;5.07;;
74974;SDS011;64061;50.836;19.138;2022-11-15T18:51:53;10.80;;;4.93;;
74974;SDS011;64061;50.836;19.138;2022-11-15T18:54:59;8.07;;;4.07;;
74974;SDS011;64061;50.836;19.138;2022-11-15T18:58:02;15.40;;;6.43;;
74974;SDS011;64061;50.836;19.138;2022-11-15T19:01:07;20.52;;;7.00;;
74974;SDS011;64061;50.836;19.138;2022-11-15T19:04:14;8.80;;;4.77;;
74974;SDS011;64061;50.836;19.138;2022-11-15T19:07:21;13.40;;;5.82;;
74974;SDS011;64061;50.836;19.138;2022-11-15T19:10:25;12.18;;;5.78;;
74974;SDS011;64061;50.836;19.138;2022-11-15T19:13:29;12.20;;;5.22;;
74974;SDS011;64061;50.836;19.138;2022-11-15T19:16:34;11.32;;;5.38;;
74974;SDS011;64061;50.836;19.138;2022-11-15T19:19:39;11.80;;;6.63;;
74974;SDS011;64061;50.836;19.138;2022-11-15T19:22:42;10.85;;;5.15;;
74974;SDS011;64061;50.836;19.138;2022-11-15T19:25:53;9.82;;;5.35;;
74974;SDS011;64061;50.836;19.138;2022-11-15T19:28:59;10.45;;;4.70;;
74974;SDS011;64061;50.836;19.138;2022-11-15T19:32:04;10.88;;;4.65;;
74974;SDS011;64061;50.836;19.138;2022-11-15T19:35:08;27.73;;;10.53;;
74974;SDS011;64061;50.836;19.138;2022-11-15T19:38:11;270.58;;;81.15;;
74974;SDS011;64061;50.836;19.138;2022-11-15T19:41:18;177.38;;;54.20;;
74974;SDS011;64061;50.836;19.138;2022-11-15T19:44:26;111.70;;;38.10;;